createdAt,value
2016-12-26T00:00:46.632Z,5.58
2016-12-26T00:01:55.333Z,5.58
2016-12-26T00:03:04.030Z,5.61
2016-12-26T00:04:12.723Z,5.58
2016-12-26T00:05:21.744Z,5.69
2016-12-26T00:06:30.440Z,5.64
2016-12-26T00:07:39.139Z,5.69
2016-12-26T00:08:47.836Z,5.69
2016-12-26T00:09:56.530Z,5.73
2016-12-26T00:11:05.255Z,5.77
2016-12-26T00:12:13.952Z,5.72
2016-12-26T00:13:22.645Z,5.64
2016-12-26T00:14:31.353Z,5.67
2016-12-26T00:15:40.050Z,5.69
2016-12-26T00:16:48.744Z,5.64
2016-12-26T00:17:57.442Z,5.67
2016-12-26T00:19:06.172Z,5.64
2016-12-26T00:20:15.178Z,5.73
2016-12-26T00:21:23.879Z,5.7
2016-12-26T00:22:32.606Z,5.69
2016-12-26T00:23:41.304Z,5.8
2016-12-26T00:24:50.006Z,5.8
2016-12-26T00:25:58.698Z,5.79
2016-12-26T00:27:07.394Z,5.8
2016-12-26T00:28:16.090Z,5.84
2016-12-26T00:29:24.792Z,5.9
2016-12-26T00:30:33.493Z,5.95
2016-12-26T00:31:42.189Z,5.97
2016-12-26T00:32:50.886Z,6.07
2016-12-26T00:33:59.583Z,6.13
2016-12-26T00:35:08.590Z,6.22
2016-12-26T00:36:17.288Z,6.12
2016-12-26T00:37:25.984Z,6.12
2016-12-26T00:38:34.682Z,6.25
2016-12-26T00:39:43.379Z,6.35
2016-12-26T00:40:52.076Z,6.34
2016-12-26T00:42:00.776Z,6.29
2016-12-26T00:43:09.474Z,6.28
2016-12-26T00:44:18.168Z,6.26
2016-12-26T00:45:26.869Z,6.16
2016-12-26T00:46:35.566Z,6.15
2016-12-26T00:47:44.259Z,6.13
2016-12-26T00:48:52.958Z,6.17
2016-12-26T00:50:01.659Z,6.07
2016-12-26T00:51:10.383Z,5.97
2016-12-26T00:52:19.087Z,5.95
2016-12-26T00:53:27.788Z,5.98
2016-12-26T00:54:36.487Z,5.99
2016-12-26T00:55:45.181Z,6.12
2016-12-26T00:56:53.879Z,5.97
2016-12-26T00:58:02.573Z,5.97
2016-12-26T00:59:11.267Z,5.94
2016-12-26T01:00:19.964Z,5.95
2016-12-26T01:01:28.658Z,5.91
2016-12-26T01:02:37.365Z,5.9
2016-12-26T01:03:46.062Z,5.79
2016-12-26T01:04:54.757Z,5.74
2016-12-26T01:06:03.454Z,5.77
2016-12-26T01:07:12.504Z,5.76
2016-12-26T01:08:21.198Z,5.64
2016-12-26T01:09:29.901Z,5.59
2016-12-26T01:10:38.628Z,5.59
2016-12-26T01:11:47.328Z,5.55
2016-12-26T01:12:56.029Z,5.51
2016-12-26T01:14:04.753Z,5.56
2016-12-26T01:15:13.450Z,5.47
2016-12-26T01:16:22.149Z,5.49
2016-12-26T01:17:30.843Z,5.49
2016-12-26T01:18:39.536Z,5.44
2016-12-26T01:19:48.234Z,5.49
2016-12-26T01:20:56.934Z,5.47
2016-12-26T01:22:05.633Z,5.43
2016-12-26T01:23:14.329Z,5.36
2016-12-26T01:24:23.022Z,5.37
2016-12-26T01:25:31.725Z,5.34
2016-12-26T01:26:40.446Z,5.37
2016-12-26T01:27:49.459Z,5.2
2016-12-26T01:28:58.165Z,5.2
2016-12-26T01:30:06.876Z,5.22
2016-12-26T01:31:15.574Z,5.22
2016-12-26T01:32:24.278Z,5.2
2016-12-26T01:33:32.979Z,5.2
2016-12-26T01:34:41.682Z,5.16
2016-12-26T01:35:50.379Z,5.15
2016-12-26T01:36:59.080Z,5.22
2016-12-26T01:38:07.775Z,5.13
2016-12-26T01:39:16.473Z,5.01
2016-12-26T01:40:25.167Z,5.01
2016-12-26T01:41:33.866Z,4.92
2016-12-26T01:42:42.563Z,4.92
2016-12-26T01:43:51.263Z,4.82
2016-12-26T01:44:59.982Z,4.71
2016-12-26T01:46:08.681Z,4.83
2016-12-26T01:47:17.379Z,4.78
2016-12-26T01:48:26.078Z,4.67
2016-12-26T01:49:34.770Z,4.6
2016-12-26T01:50:43.464Z,4.61
2016-12-26T01:51:52.159Z,4.56
2016-12-26T01:53:00.851Z,4.56
2016-12-26T01:54:09.547Z,4.5
2016-12-26T01:55:18.243Z,4.49
2016-12-26T01:56:26.935Z,4.49
2016-12-26T01:57:35.630Z,4.52
2016-12-26T01:58:44.330Z,4.45
2016-12-26T01:59:53.026Z,4.36
2016-12-26T02:01:01.724Z,4.39
2016-12-26T02:02:10.423Z,4.52
2016-12-26T02:03:19.124Z,4.63
2016-12-26T02:04:27.819Z,4.7
2016-12-26T02:05:36.532Z,4.64
2016-12-26T02:06:45.229Z,4.66
2016-12-26T02:07:53.923Z,4.7
2016-12-26T02:09:02.621Z,4.7
2016-12-26T02:10:11.319Z,4.79
2016-12-26T02:11:20.015Z,4.82
2016-12-26T02:12:28.710Z,4.79
2016-12-26T02:13:37.409Z,4.95
2016-12-26T02:14:46.107Z,5
2016-12-26T02:15:54.801Z,4.98
2016-12-26T02:17:03.494Z,4.95
2016-12-26T02:18:12.198Z,5.05
2016-12-26T02:19:20.896Z,5.08
2016-12-26T02:20:29.592Z,5.01
2016-12-26T02:21:38.312Z,4.98
2016-12-26T02:22:47.005Z,5.13
2016-12-26T02:23:55.699Z,5.18
2016-12-26T02:25:04.395Z,5.23
2016-12-26T02:26:13.090Z,5.22
2016-12-26T02:27:21.788Z,5.2
2016-12-26T02:28:30.481Z,5.2
2016-12-26T02:29:39.176Z,5.25
2016-12-26T02:30:47.887Z,5.26
2016-12-26T02:31:56.902Z,5.26
2016-12-26T02:33:05.594Z,5.22
2016-12-26T02:34:14.293Z,5.19
2016-12-26T02:35:22.987Z,5.13
2016-12-26T02:36:31.683Z,5.05
2016-12-26T02:37:40.404Z,5.02
2016-12-26T02:38:49.097Z,5.07
2016-12-26T02:39:57.792Z,5.02
2016-12-26T02:41:06.488Z,4.87
2016-12-26T02:42:15.181Z,4.71
2016-12-26T02:43:23.873Z,4.74
2016-12-26T02:44:32.568Z,4.64
2016-12-26T02:45:41.264Z,4.67
2016-12-26T02:46:49.964Z,4.83
2016-12-26T02:47:58.656Z,4.84
2016-12-26T02:49:07.351Z,4.95
2016-12-26T02:50:16.045Z,5.01
2016-12-26T02:51:24.746Z,5.04
2016-12-26T02:52:33.442Z,5.02
2016-12-26T02:53:42.132Z,5.02
2016-12-26T02:54:50.847Z,5.02
2016-12-26T02:55:59.542Z,5.02
2016-12-26T02:57:08.238Z,4.95
2016-12-26T02:58:16.931Z,4.98
2016-12-26T02:59:25.623Z,5.02
2016-12-26T03:00:34.321Z,5.02
2016-12-26T03:01:43.015Z,5.1
2016-12-26T03:02:51.707Z,5.05
2016-12-26T03:04:00.401Z,5.04
2016-12-26T03:05:09.096Z,5
2016-12-26T03:06:17.843Z,4.95
2016-12-26T03:07:26.572Z,4.82
2016-12-26T03:08:35.266Z,4.78
2016-12-26T03:09:43.966Z,4.68
2016-12-26T03:10:52.666Z,4.7
2016-12-26T03:12:01.357Z,4.57
2016-12-26T03:13:10.063Z,4.71
2016-12-26T03:14:18.761Z,4.75
2016-12-26T03:15:27.483Z,4.67
2016-12-26T03:16:36.176Z,4.68
2016-12-26T03:17:44.923Z,4.6
2016-12-26T03:18:53.616Z,4.57
2016-12-26T03:20:02.325Z,4.58
2016-12-26T03:21:11.024Z,4.6
2016-12-26T03:22:19.726Z,4.61
2016-12-26T03:23:28.732Z,4.49
2016-12-26T03:24:37.427Z,4.43
2016-12-26T03:25:46.124Z,4.52
2016-12-26T03:26:54.817Z,4.5
2016-12-26T03:28:03.510Z,4.39
2016-12-26T03:29:12.206Z,4.63
2016-12-26T03:30:20.902Z,4.56
2016-12-26T03:31:29.598Z,4.61
2016-12-26T03:32:38.295Z,4.52
2016-12-26T03:33:46.993Z,4.58
2016-12-26T03:34:55.691Z,4.56
2016-12-26T03:36:04.384Z,4.5
2016-12-26T03:37:13.087Z,4.5
2016-12-26T03:38:21.783Z,4.5
2016-12-26T03:39:30.478Z,4.43
2016-12-26T03:40:39.186Z,4.42
2016-12-26T03:41:47.885Z,4.53
2016-12-26T03:42:56.578Z,4.45
2016-12-26T03:44:05.300Z,4.5
2016-12-26T03:45:14.309Z,4.39
2016-12-26T03:46:23.101Z,4.48
2016-12-26T03:47:31.795Z,4.43
2016-12-26T03:48:40.485Z,4.42
2016-12-26T03:49:49.177Z,4.43
2016-12-26T03:50:57.873Z,4.32
2016-12-26T03:52:06.569Z,4.34
2016-12-26T03:53:15.267Z,4.3
2016-12-26T03:54:23.958Z,4.25
2016-12-26T03:55:32.656Z,4.12
2016-12-26T03:56:41.348Z,4.14
2016-12-26T03:57:50.715Z,4.13
2016-12-26T03:58:59.412Z,4.14
2016-12-26T04:00:08.103Z,4.18
2016-12-26T04:01:16.797Z,4.1
2016-12-26T04:02:25.490Z,4.04
2016-12-26T04:03:34.186Z,4.06
2016-12-26T04:04:42.885Z,4.02
2016-12-26T04:05:51.581Z,3.94
2016-12-26T04:07:00.613Z,3.89
2016-12-26T04:08:09.313Z,3.94
2016-12-26T04:09:18.013Z,3.95
2016-12-26T04:10:26.708Z,4.03
2016-12-26T04:11:35.403Z,4
2016-12-26T04:12:44.127Z,3.94
2016-12-26T04:13:52.822Z,4
2016-12-26T04:15:01.515Z,4.04
2016-12-26T04:16:10.210Z,4
2016-12-26T04:17:18.905Z,4
2016-12-26T04:18:27.921Z,3.89
2016-12-26T04:19:36.617Z,3.91
2016-12-26T04:20:45.311Z,3.92
2016-12-26T04:21:54.024Z,3.82
2016-12-26T04:23:02.720Z,3.82
2016-12-26T04:24:11.419Z,3.92
2016-12-26T04:25:20.113Z,3.94
2016-12-26T04:26:28.810Z,3.94
2016-12-26T04:27:37.506Z,3.92
2016-12-26T04:28:46.207Z,3.89
2016-12-26T04:29:54.906Z,3.89
2016-12-26T04:31:03.602Z,3.94
2016-12-26T04:32:12.328Z,3.94
2016-12-26T04:33:21.024Z,3.88
2016-12-26T04:34:29.719Z,3.91
2016-12-26T04:35:38.414Z,3.92
2016-12-26T04:36:47.106Z,3.91
2016-12-26T04:37:55.808Z,3.82
2016-12-26T04:39:04.505Z,3.85
2016-12-26T04:40:13.198Z,3.81
2016-12-26T04:41:21.891Z,3.82
2016-12-26T04:42:30.588Z,3.77
2016-12-26T04:43:39.284Z,3.76
2016-12-26T04:44:47.976Z,3.88
2016-12-26T04:45:56.669Z,3.88
2016-12-26T04:47:05.365Z,3.78
2016-12-26T04:48:14.058Z,3.84
2016-12-26T04:49:22.759Z,3.78
2016-12-26T04:50:31.457Z,3.86
2016-12-26T04:51:40.183Z,3.82
2016-12-26T04:52:48.876Z,3.78
2016-12-26T04:53:57.568Z,3.82
2016-12-26T04:55:06.579Z,3.77
2016-12-26T04:56:15.276Z,3.7
2016-12-26T04:57:23.978Z,3.77
2016-12-26T04:58:32.673Z,3.66
2016-12-26T04:59:41.370Z,3.76
2016-12-26T05:00:50.079Z,3.77
2016-12-26T05:01:58.774Z,3.73
2016-12-26T05:03:07.463Z,3.68
2016-12-26T05:04:16.158Z,3.76
2016-12-26T05:05:24.858Z,3.74
2016-12-26T05:06:33.548Z,3.74
2016-12-26T05:07:42.246Z,3.95
2016-12-26T05:08:50.941Z,3.86
2016-12-26T05:09:59.632Z,3.81
2016-12-26T05:11:08.325Z,3.7
2016-12-26T05:12:17.024Z,3.59
2016-12-26T05:13:25.716Z,3.74
2016-12-26T05:14:34.412Z,3.66
2016-12-26T05:15:43.109Z,3.67
2016-12-26T05:16:51.806Z,3.61
2016-12-26T05:18:00.502Z,3.53
2016-12-26T05:19:09.201Z,3.58
2016-12-26T05:20:17.900Z,3.5
2016-12-26T05:21:26.598Z,3.58
2016-12-26T05:22:35.295Z,3.49
2016-12-26T05:23:43.995Z,3.49
2016-12-26T05:24:52.694Z,3.46
2016-12-26T05:26:01.390Z,3.56
2016-12-26T05:27:10.083Z,3.63
2016-12-26T05:28:18.778Z,3.59
2016-12-26T05:29:27.472Z,3.58
2016-12-26T05:30:36.166Z,3.56
2016-12-26T05:31:44.860Z,3.59
2016-12-26T05:32:53.554Z,3.61
2016-12-26T05:34:02.245Z,3.61
2016-12-26T05:35:10.943Z,3.55
2016-12-26T05:36:19.637Z,3.52
2016-12-26T05:37:28.329Z,3.58
2016-12-26T05:38:37.028Z,3.55
2016-12-26T05:39:46.047Z,3.48
2016-12-26T05:40:54.739Z,3.49
2016-12-26T05:42:03.433Z,3.43
2016-12-26T05:43:12.156Z,3.37
2016-12-26T05:44:20.851Z,3.33
2016-12-26T05:45:29.550Z,3.29
2016-12-26T05:46:38.250Z,3.46
2016-12-26T05:47:46.948Z,3.37
2016-12-26T05:48:55.643Z,3.34
2016-12-26T05:50:04.337Z,3.36
2016-12-26T05:51:13.028Z,3.36
2016-12-26T05:52:21.722Z,3.4
2016-12-26T05:53:30.441Z,3.31
2016-12-26T05:54:39.135Z,3.34
2016-12-26T05:55:47.829Z,3.33
2016-12-26T05:56:56.519Z,3.26
2016-12-26T05:58:05.211Z,3.15
2016-12-26T05:59:13.901Z,3.13
2016-12-26T06:00:22.634Z,3.12
2016-12-26T06:01:31.388Z,3.08
2016-12-26T06:02:40.078Z,3.12
2016-12-26T06:03:48.778Z,3.09
2016-12-26T06:04:57.473Z,3.03
2016-12-26T06:06:06.171Z,3.03
2016-12-26T06:07:14.867Z,2.91
2016-12-26T06:08:23.559Z,2.91
2016-12-26T06:09:32.251Z,2.88
2016-12-26T06:10:40.943Z,3.11
2016-12-26T06:11:49.636Z,3.09
2016-12-26T06:12:58.332Z,3.01
2016-12-26T06:14:07.029Z,3.03
2016-12-26T06:15:15.724Z,3.03
2016-12-26T06:16:24.419Z,2.97
2016-12-26T06:17:33.108Z,3.08
2016-12-26T06:18:41.796Z,2.97
2016-12-26T06:19:50.498Z,2.94
2016-12-26T06:20:59.187Z,3.03
2016-12-26T06:22:07.879Z,2.93
2016-12-26T06:23:16.573Z,2.93
2016-12-26T06:24:25.261Z,2.87
2016-12-26T06:25:33.956Z,2.85
2016-12-26T06:26:42.650Z,2.91
2016-12-26T06:27:51.345Z,2.94
2016-12-26T06:29:00.040Z,2.9
2016-12-26T06:30:08.737Z,2.98
2016-12-26T06:31:17.455Z,2.88
2016-12-26T06:32:26.150Z,2.94
2016-12-26T06:33:34.843Z,2.93
2016-12-26T06:34:43.540Z,3
2016-12-26T06:35:52.230Z,2.91
2016-12-26T06:37:00.930Z,2.91
2016-12-26T06:38:09.628Z,2.94
2016-12-26T06:39:18.323Z,2.98
2016-12-26T06:40:27.016Z,2.93
2016-12-26T06:41:35.709Z,2.94
2016-12-26T06:42:44.401Z,2.95
2016-12-26T06:43:53.102Z,2.95
2016-12-26T06:45:01.795Z,2.94
2016-12-26T06:46:10.488Z,2.95
2016-12-26T06:47:19.179Z,2.93
2016-12-26T06:48:27.874Z,2.98
2016-12-26T06:49:36.600Z,2.88
2016-12-26T06:50:45.295Z,2.8
2016-12-26T06:51:54.017Z,2.93
2016-12-26T06:53:02.712Z,2.87
2016-12-26T06:54:11.408Z,2.68
2016-12-26T06:55:20.102Z,2.72
2016-12-26T06:56:28.793Z,2.65
2016-12-26T06:57:37.486Z,2.5
2016-12-26T06:58:46.184Z,2.5
2016-12-26T06:59:54.877Z,2.5
2016-12-26T07:01:03.572Z,2.51
2016-12-26T07:02:12.266Z,2.55
2016-12-26T07:03:20.967Z,2.51
2016-12-26T07:04:29.661Z,2.5
2016-12-26T07:05:38.359Z,2.51
2016-12-26T07:06:47.364Z,2.5
2016-12-26T07:07:56.060Z,2.59
2016-12-26T07:09:04.754Z,2.51
2016-12-26T07:10:13.450Z,2.57
2016-12-26T07:11:22.142Z,2.51
2016-12-26T07:12:30.839Z,2.52
2016-12-26T07:13:39.561Z,2.57
2016-12-26T07:14:48.253Z,2.51
2016-12-26T07:15:56.945Z,2.52
2016-12-26T07:17:05.665Z,2.52
2016-12-26T07:18:14.355Z,2.55
2016-12-26T07:19:23.051Z,2.5
2016-12-26T07:20:31.748Z,2.43
2016-12-26T07:21:40.439Z,2.52
2016-12-26T07:22:49.131Z,2.46
2016-12-26T07:23:57.823Z,2.4
2016-12-26T07:25:06.515Z,2.39
2016-12-26T07:26:15.206Z,2.37
2016-12-26T07:27:23.898Z,2.4
2016-12-26T07:28:32.608Z,2.44
2016-12-26T07:29:41.305Z,2.41
2016-12-26T07:30:50.003Z,2.37
2016-12-26T07:31:59.023Z,2.39
2016-12-26T07:33:07.719Z,2.4
2016-12-26T07:34:16.411Z,2.54
2016-12-26T07:35:25.107Z,2.41
2016-12-26T07:36:33.804Z,2.43
2016-12-26T07:37:42.497Z,2.5
2016-12-26T07:38:51.192Z,2.51
2016-12-26T07:39:59.882Z,2.54
2016-12-26T07:41:08.576Z,2.55
2016-12-26T07:42:17.274Z,2.55
2016-12-26T07:43:25.971Z,2.61
2016-12-26T07:44:34.665Z,2.57
2016-12-26T07:45:43.359Z,2.58
2016-12-26T07:46:52.058Z,2.62
2016-12-26T07:48:00.759Z,2.62
2016-12-26T07:49:09.453Z,2.58
2016-12-26T07:50:18.146Z,2.65
2016-12-26T07:51:26.836Z,2.64
2016-12-26T07:52:35.532Z,2.58
2016-12-26T07:53:44.222Z,2.59
2016-12-26T07:54:52.913Z,2.59
2016-12-26T07:56:01.924Z,2.55
2016-12-26T07:57:10.622Z,2.62
2016-12-26T07:58:19.316Z,2.58
2016-12-26T07:59:28.016Z,2.58
2016-12-26T08:00:36.715Z,2.65
2016-12-26T08:01:45.726Z,2.65
2016-12-26T08:02:54.416Z,2.51
2016-12-26T08:04:03.108Z,2.55
2016-12-26T08:05:11.804Z,2.58
2016-12-26T08:06:20.499Z,2.54
2016-12-26T08:07:29.191Z,2.5
2016-12-26T08:08:37.887Z,2.47
2016-12-26T08:09:46.580Z,2.54
2016-12-26T08:10:55.276Z,2.52
2016-12-26T08:12:03.972Z,2.52
2016-12-26T08:13:12.664Z,2.5
2016-12-26T08:14:21.363Z,2.47
2016-12-26T08:15:30.111Z,2.54
2016-12-26T08:16:38.814Z,2.51
2016-12-26T08:17:47.506Z,2.5
2016-12-26T08:18:56.200Z,2.46
2016-12-26T08:20:05.205Z,2.4
2016-12-26T08:21:13.898Z,2.41
2016-12-26T08:22:22.596Z,2.36
2016-12-26T08:23:31.296Z,2.4
2016-12-26T08:24:39.988Z,2.33
2016-12-26T08:25:48.680Z,2.39
2016-12-26T08:26:57.377Z,2.36
2016-12-26T08:28:06.073Z,2.23
2016-12-26T08:29:14.772Z,2.33
2016-12-26T08:30:23.465Z,2.23
2016-12-26T08:31:32.163Z,2.22
2016-12-26T08:32:40.852Z,2.32
2016-12-26T08:33:49.548Z,2.36
2016-12-26T08:34:58.248Z,2.44
2016-12-26T08:36:06.939Z,2.36
2016-12-26T08:37:15.633Z,2.34
2016-12-26T08:38:24.325Z,2.4
2016-12-26T08:39:33.015Z,2.41
2016-12-26T08:40:41.709Z,2.4
2016-12-26T08:41:50.402Z,2.4
2016-12-26T08:42:59.100Z,2.55
2016-12-26T08:44:07.791Z,2.52
2016-12-26T08:45:16.481Z,2.55
2016-12-26T08:46:25.200Z,2.59
2016-12-26T08:47:33.897Z,2.58
2016-12-26T08:48:42.591Z,2.65
2016-12-26T08:49:51.289Z,2.55
2016-12-26T08:50:59.982Z,2.59
2016-12-26T08:52:08.686Z,2.59
2016-12-26T08:53:17.381Z,2.58
2016-12-26T08:54:26.081Z,2.52
2016-12-26T08:55:34.774Z,2.55
2016-12-26T08:56:43.497Z,2.59
2016-12-26T08:57:52.188Z,2.5
2016-12-26T08:59:00.877Z,2.5
2016-12-26T09:00:09.568Z,2.51
2016-12-26T09:01:18.257Z,2.47
2016-12-26T09:02:26.952Z,2.46
2016-12-26T09:03:35.644Z,2.52
2016-12-26T09:04:44.343Z,2.51
2016-12-26T09:05:53.036Z,2.47
2016-12-26T09:07:01.731Z,2.41
2016-12-26T09:08:10.429Z,2.43
2016-12-26T09:09:19.121Z,2.43
2016-12-26T09:10:27.813Z,2.46
2016-12-26T09:11:36.507Z,2.41
2016-12-26T09:12:45.207Z,2.44
2016-12-26T09:13:53.899Z,2.5
2016-12-26T09:15:02.598Z,2.46
2016-12-26T09:16:11.293Z,2.46
2016-12-26T09:17:19.989Z,2.47
2016-12-26T09:18:28.685Z,2.51
2016-12-26T09:19:37.380Z,2.51
2016-12-26T09:20:46.100Z,2.5
2016-12-26T09:21:54.791Z,2.43
2016-12-26T09:23:03.486Z,2.51
2016-12-26T09:24:12.179Z,2.5
2016-12-26T09:25:20.875Z,2.46
2016-12-26T09:26:29.605Z,2.47
2016-12-26T09:27:38.322Z,2.52
2016-12-26T09:28:47.013Z,2.51
2016-12-26T09:29:55.707Z,2.5
2016-12-26T09:31:04.402Z,2.51
2016-12-26T09:32:13.096Z,2.54
2016-12-26T09:33:21.826Z,2.54
2016-12-26T09:34:30.515Z,2.55
2016-12-26T09:35:39.214Z,2.59
2016-12-26T09:36:47.935Z,2.55
2016-12-26T09:37:56.629Z,2.61
2016-12-26T09:39:05.321Z,2.61
2016-12-26T09:40:14.017Z,2.65
2016-12-26T09:41:22.711Z,2.64
2016-12-26T09:42:31.431Z,2.62
2016-12-26T09:43:40.122Z,2.59
2016-12-26T09:44:48.814Z,2.64
2016-12-26T09:45:57.515Z,2.64
2016-12-26T09:47:06.207Z,2.69
2016-12-26T09:48:14.903Z,2.68
2016-12-26T09:49:23.608Z,2.7
2016-12-26T09:50:32.301Z,2.73
2016-12-26T09:51:40.994Z,2.77
2016-12-26T09:52:49.688Z,2.75
2016-12-26T09:53:58.384Z,2.75
2016-12-26T09:55:07.081Z,2.77
2016-12-26T09:56:15.782Z,2.8
2016-12-26T09:57:24.504Z,2.75
2016-12-26T09:58:33.198Z,2.8
2016-12-26T09:59:41.890Z,2.76
2016-12-26T10:00:50.591Z,2.77
2016-12-26T10:01:59.305Z,2.83
2016-12-26T10:03:08.000Z,2.88
2016-12-26T10:04:16.692Z,2.93
2016-12-26T10:05:25.386Z,2.77
2016-12-26T10:06:34.082Z,2.76
2016-12-26T10:07:42.811Z,2.69
2016-12-26T10:08:51.505Z,2.69
2016-12-26T10:10:00.199Z,2.83
2016-12-26T10:11:08.893Z,2.73
2016-12-26T10:12:17.588Z,2.72
2016-12-26T10:13:26.291Z,2.79
2016-12-26T10:14:34.986Z,2.75
2016-12-26T10:15:43.680Z,2.77
2016-12-26T10:16:52.371Z,2.65
2016-12-26T10:18:01.066Z,2.65
2016-12-26T10:19:09.760Z,2.64
2016-12-26T10:20:18.452Z,2.7
2016-12-26T10:21:27.145Z,2.59
2016-12-26T10:22:35.842Z,2.61
2016-12-26T10:23:44.533Z,2.57
2016-12-26T10:24:53.228Z,2.59
2016-12-26T10:26:01.920Z,2.57
2016-12-26T10:27:10.619Z,2.51
2016-12-26T10:28:19.312Z,2.5
2016-12-26T10:29:28.008Z,2.46
2016-12-26T10:30:36.705Z,2.36
2016-12-26T10:31:45.397Z,2.37
2016-12-26T10:32:54.093Z,2.4
2016-12-26T10:34:02.794Z,2.36
2016-12-26T10:35:11.489Z,2.32
2016-12-26T10:36:20.185Z,2.26
2016-12-26T10:37:28.880Z,2.34
2016-12-26T10:38:37.575Z,2.34
2016-12-26T10:39:46.276Z,2.26
2016-12-26T10:40:54.973Z,2.18
2016-12-26T10:42:03.663Z,2.22
2016-12-26T10:43:12.359Z,2.34
2016-12-26T10:44:21.055Z,2.33
2016-12-26T10:45:29.746Z,2.28
2016-12-26T10:46:38.448Z,2.32
2016-12-26T10:47:47.139Z,2.3
2016-12-26T10:48:55.830Z,2.39
2016-12-26T10:50:04.519Z,2.51
2016-12-26T10:51:13.210Z,2.5
2016-12-26T10:52:21.905Z,2.59
2016-12-26T10:53:30.602Z,2.83
2016-12-26T10:54:39.295Z,2.93
2016-12-26T10:55:48.029Z,2.98
2016-12-26T10:56:56.759Z,3.12
2016-12-26T10:58:05.458Z,3.24
2016-12-26T10:59:14.157Z,3.33
2016-12-26T11:00:22.847Z,3.37
2016-12-26T11:01:31.538Z,3.22
2016-12-26T11:02:40.231Z,3.18
2016-12-26T11:03:48.952Z,3.11
2016-12-26T11:04:57.647Z,3.09
2016-12-26T11:06:06.343Z,3.01
2016-12-26T11:07:15.035Z,2.98
2016-12-26T11:08:23.734Z,2.97
2016-12-26T11:09:32.457Z,2.9
2016-12-26T11:10:41.156Z,2.91
2016-12-26T11:11:49.848Z,2.9
2016-12-26T11:12:58.543Z,2.9
2016-12-26T11:14:07.237Z,2.87
2016-12-26T11:15:15.927Z,2.82
2016-12-26T11:16:24.629Z,2.76
2016-12-26T11:17:33.328Z,2.76
2016-12-26T11:18:42.025Z,2.79
2016-12-26T11:19:50.719Z,2.77
2016-12-26T11:20:59.412Z,2.69
2016-12-26T11:22:08.110Z,2.73
2016-12-26T11:23:16.821Z,2.68
2016-12-26T11:24:25.515Z,2.62
2016-12-26T11:25:34.212Z,2.62
2016-12-26T11:26:42.915Z,2.69
2016-12-26T11:27:51.611Z,2.62
2016-12-26T11:29:00.308Z,2.61
2016-12-26T11:30:09.034Z,2.55
2016-12-26T11:31:17.728Z,2.55
2016-12-26T11:32:26.418Z,2.55
2016-12-26T11:33:35.432Z,2.47
2016-12-26T11:34:44.436Z,2.55
2016-12-26T11:35:53.133Z,2.47
2016-12-26T11:37:01.826Z,2.51
2016-12-26T11:38:10.528Z,2.51
2016-12-26T11:39:19.220Z,2.55
2016-12-26T11:40:28.270Z,2.5
2016-12-26T11:41:36.966Z,2.47
2016-12-26T11:42:45.661Z,2.47
2016-12-26T11:43:54.356Z,2.58
2016-12-26T11:45:03.047Z,2.68
2016-12-26T11:46:11.739Z,2.64
2016-12-26T11:47:20.437Z,2.65
2016-12-26T11:48:29.129Z,2.73
2016-12-26T11:49:37.822Z,2.75
2016-12-26T11:50:46.514Z,2.93
2016-12-26T11:51:55.213Z,3
2016-12-26T11:53:04.006Z,3.16
2016-12-26T11:54:12.705Z,3.34
2016-12-26T11:55:21.397Z,3.52
2016-12-26T11:56:30.092Z,3.56
2016-12-26T11:57:38.782Z,3.68
2016-12-26T11:58:47.475Z,3.74
2016-12-26T11:59:56.170Z,3.7
2016-12-26T12:01:04.899Z,3.61
2016-12-26T12:02:13.592Z,3.58
2016-12-26T12:03:22.289Z,3.48
2016-12-26T12:04:31.302Z,3.45
2016-12-26T12:05:39.996Z,3.67
2016-12-26T12:06:48.691Z,3.61
2016-12-26T12:07:57.700Z,3.53
2016-12-26T12:09:06.397Z,3.74
2016-12-26T12:10:15.096Z,3.77
2016-12-26T12:11:23.794Z,3.78
2016-12-26T12:12:32.490Z,3.81
2016-12-26T12:13:41.188Z,3.76
2016-12-26T12:14:49.881Z,3.84
2016-12-26T12:15:58.577Z,3.76
2016-12-26T12:17:07.272Z,3.76
2016-12-26T12:18:15.970Z,3.88
2016-12-26T12:19:24.668Z,3.89
2016-12-26T12:20:33.394Z,3.88
2016-12-26T12:21:42.090Z,3.95
2016-12-26T12:22:50.790Z,3.96
2016-12-26T12:23:59.499Z,3.7
2016-12-26T12:25:08.197Z,3.43
2016-12-26T12:26:16.893Z,3.34
2016-12-26T12:27:25.588Z,3.18
2016-12-26T12:28:34.288Z,3.15
2016-12-26T12:29:42.981Z,3.11
2016-12-26T12:30:51.677Z,3.18
2016-12-26T12:32:00.374Z,3.36
2016-12-26T12:33:09.082Z,3.41
2016-12-26T12:34:18.119Z,3.4
2016-12-26T12:35:26.852Z,3.37
2016-12-26T12:36:35.585Z,3.29
2016-12-26T12:37:44.329Z,3.08
2016-12-26T12:38:53.391Z,2.97
2016-12-26T12:40:02.084Z,3.03
2016-12-26T12:41:10.781Z,3.03
2016-12-26T12:42:19.477Z,3.06
2016-12-26T12:43:28.177Z,3.13
2016-12-26T12:44:36.878Z,3.08
2016-12-26T12:45:45.570Z,3.05
2016-12-26T12:46:54.268Z,2.9
2016-12-26T12:48:02.967Z,2.83
2016-12-26T12:49:11.679Z,2.85
2016-12-26T12:50:20.369Z,2.93
2016-12-26T12:51:29.088Z,3
2016-12-26T12:52:37.783Z,2.98
2016-12-26T12:53:46.482Z,2.88
2016-12-26T12:54:55.178Z,2.77
2016-12-26T12:56:03.873Z,2.75
2016-12-26T12:57:12.565Z,2.7
2016-12-26T12:58:21.259Z,2.59
2016-12-26T12:59:29.953Z,2.59
2016-12-26T13:00:38.652Z,2.58
2016-12-26T13:01:47.351Z,2.52
2016-12-26T13:02:56.045Z,2.5
2016-12-26T13:04:04.743Z,2.46
2016-12-26T13:05:13.437Z,2.5
2016-12-26T13:06:22.129Z,2.43
2016-12-26T13:07:30.825Z,2.5
2016-12-26T13:08:39.544Z,2.51
2016-12-26T13:09:48.234Z,2.47
2016-12-26T13:10:56.922Z,2.51
2016-12-26T13:12:05.615Z,2.57
2016-12-26T13:13:14.311Z,2.54
2016-12-26T13:14:23.004Z,2.55
2016-12-26T13:15:31.696Z,2.51
2016-12-26T13:16:40.392Z,2.5
2016-12-26T13:17:49.087Z,2.41
2016-12-26T13:18:57.833Z,2.47
2016-12-26T13:20:06.859Z,2.5
2016-12-26T13:21:15.548Z,2.47
2016-12-26T13:22:24.242Z,2.47
2016-12-26T13:23:32.934Z,2.5
2016-12-26T13:24:41.631Z,2.44
2016-12-26T13:25:50.321Z,2.47
2016-12-26T13:26:59.013Z,2.44
2016-12-26T13:28:07.704Z,2.43
2016-12-26T13:29:16.396Z,2.37
2016-12-26T13:30:25.091Z,2.37
2016-12-26T13:31:33.785Z,2.36
2016-12-26T13:32:42.479Z,2.4
2016-12-26T13:33:51.174Z,2.39
2016-12-26T13:34:59.865Z,2.34
2016-12-26T13:36:08.566Z,2.33
2016-12-26T13:37:17.254Z,2.37
2016-12-26T13:38:25.980Z,2.4
2016-12-26T13:39:34.673Z,2.41
2016-12-26T13:40:43.367Z,2.43
2016-12-26T13:41:52.058Z,2.41
2016-12-26T13:43:00.749Z,2.41
2016-12-26T13:44:09.454Z,2.4
2016-12-26T13:45:18.144Z,2.44
2016-12-26T13:46:26.838Z,2.46
2016-12-26T13:47:35.540Z,2.41
2016-12-26T13:48:44.546Z,2.47
2016-12-26T13:49:53.243Z,2.44
2016-12-26T13:51:01.936Z,2.5
2016-12-26T13:52:10.653Z,2.4
2016-12-26T13:53:19.349Z,2.46
2016-12-26T13:54:28.042Z,2.41
2016-12-26T13:55:36.735Z,2.4
2016-12-26T13:56:45.429Z,2.36
2016-12-26T13:57:54.120Z,2.4
2016-12-26T13:59:02.814Z,2.4
2016-12-26T14:00:11.512Z,2.4
2016-12-26T14:01:20.202Z,2.41
2016-12-26T14:02:28.896Z,2.4
2016-12-26T14:03:37.584Z,2.41
2016-12-26T14:04:46.276Z,2.34
2016-12-26T14:05:54.979Z,2.26
2016-12-26T14:07:03.671Z,2.25
2016-12-26T14:08:12.362Z,2.25
2016-12-26T14:09:21.051Z,2.37
2016-12-26T14:10:29.743Z,2.23
2016-12-26T14:11:38.432Z,2.23
2016-12-26T14:12:47.127Z,2.22
2016-12-26T14:13:55.819Z,2.22
2016-12-26T14:15:04.508Z,2.3
2016-12-26T14:16:13.203Z,2.22
2016-12-26T14:17:21.895Z,2.18
2016-12-26T14:18:30.589Z,2.26
2016-12-26T14:19:39.276Z,2.19
2016-12-26T14:20:47.966Z,2.25
2016-12-26T14:21:56.660Z,2.21
2016-12-26T14:23:05.351Z,2.19
2016-12-26T14:24:14.044Z,2.15
2016-12-26T14:25:22.744Z,2.14
2016-12-26T14:26:31.439Z,2.07
2016-12-26T14:27:40.128Z,2.15
2016-12-26T14:28:48.818Z,2.15
2016-12-26T14:29:57.510Z,2.14
2016-12-26T14:31:06.205Z,2.14
2016-12-26T14:32:14.898Z,2.16
2016-12-26T14:33:23.586Z,2.18
2016-12-26T14:34:32.281Z,2.15
2016-12-26T14:35:40.975Z,2
2016-12-26T14:36:49.662Z,2.14
2016-12-26T14:37:58.351Z,2.12
2016-12-26T14:39:07.049Z,2.01
2016-12-26T14:40:15.740Z,2.01
2016-12-26T14:41:24.437Z,2.12
2016-12-26T14:42:33.131Z,2
2016-12-26T14:43:41.844Z,2
2016-12-26T14:44:50.540Z,1.86
2016-12-26T14:45:59.228Z,1.95
2016-12-26T14:47:07.918Z,1.86
2016-12-26T14:48:16.631Z,1.88
2016-12-26T14:49:25.324Z,1.85
2016-12-26T14:50:34.018Z,1.85
2016-12-26T14:51:42.706Z,1.88
2016-12-26T14:52:51.396Z,1.84
2016-12-26T14:54:00.082Z,1.82
2016-12-26T14:55:08.775Z,1.7
2016-12-26T14:56:17.467Z,1.75
2016-12-26T14:57:26.163Z,1.78
2016-12-26T14:58:34.849Z,1.75
2016-12-26T14:59:43.544Z,1.78
2016-12-26T15:00:52.233Z,1.71
2016-12-26T15:02:00.925Z,1.7
2016-12-26T15:03:09.625Z,1.66
2016-12-26T15:04:18.312Z,1.74
2016-12-26T15:05:27.018Z,1.71
2016-12-26T15:06:35.712Z,1.71
2016-12-26T15:07:44.400Z,1.68
2016-12-26T15:08:53.089Z,1.7
2016-12-26T15:10:01.781Z,1.67
2016-12-26T15:11:10.478Z,1.64
2016-12-26T15:12:19.169Z,1.67
2016-12-26T15:13:27.861Z,1.71
2016-12-26T15:14:36.580Z,1.7
2016-12-26T15:15:45.274Z,1.68
2016-12-26T15:16:53.971Z,1.74
2016-12-26T15:18:02.689Z,1.74
2016-12-26T15:19:11.387Z,1.74